Time;durP1;ratioP1;P1;durP2;ratioP2;P2;SDS_P1;SDS_P2;PMS_P1;PMS_P2;Temp;Humidity;BMP_temperature;BMP_pressure;BME280_temperature;BME280_humidity;BME280_pressure;Samples;Min_cycle;Max_cycle;Signal;HPM_P1;HPM_P2
2022/09/14 00:01:26;;;;;;;6.77;1.10;;;14.30;99.90;;;;;;5032847;28;20203;-50
2022/09/14 00:03:54;;;;;;;7.27;1.43;;;14.30;99.90;;;;;;5043369;28;20225;-52
2022/09/14 00:06:23;;;;;;;3.67;1.00;;;14.30;99.90;;;;;;5041315;28;20281;-51
2022/09/14 00:08:51;;;;;;;6.67;0.97;;;14.20;99.90;;;;;;5043770;28;20196;-53
2022/09/14 00:11:18;;;;;;;5.03;1.83;;;14.20;99.90;;;;;;5040425;28;20614;-50
2022/09/14 00:13:46;;;;;;;4.97;1.40;;;14.20;99.90;;;;;;5028669;28;20215;-48
2022/09/14 00:16:16;;;;;;;4.90;0.87;;;14.20;99.90;;;;;;5043138;28;20219;-54
2022/09/14 00:18:43;;;;;;;5.20;1.00;;;14.10;99.90;;;;;;5038382;28;20334;-49
2022/09/14 00:21:11;;;;;;;5.40;1.10;;;14.10;99.90;;;;;;5041056;28;20591;-52
2022/09/14 00:23:41;;;;;;;2.10;0.80;;;14.10;99.90;;;;;;5040212;28;20876;-50
2022/09/14 00:26:09;;;;;;;3.00;1.00;;;14.00;99.90;;;;;;5044087;28;20204;-49
2022/09/14 00:28:38;;;;;;;3.07;1.07;;;14.00;99.90;;;;;;5028331;28;20218;-47
2022/09/14 00:31:06;;;;;;;7.80;1.10;;;14.00;99.90;;;;;;5041841;28;20200;-50
2022/09/14 00:33:33;;;;;;;4.67;1.40;;;14.00;99.90;;;;;;5034519;28;20202;-52
2022/09/14 00:36:08;;;;;;;4.50;1.10;;;13.90;99.90;;;;;;5043803;28;20308;-52
2022/09/14 00:38:35;;;;;;;5.53;1.00;;;13.90;99.90;;;;;;5036615;28;20297;-53
2022/09/14 00:41:05;;;;;;;4.47;1.00;;;13.90;99.90;;;;;;5051247;28;20196;-50
2022/09/14 00:43:33;;;;;;;5.67;1.13;;;13.80;99.90;;;;;;5038726;28;20188;-48
2022/09/14 00:46:01;;;;;;;3.30;1.00;;;13.80;99.90;;;;;;5032637;28;20605;-49
2022/09/14 00:48:29;;;;;;;4.37;1.20;;;13.70;99.90;;;;;;5039629;28;20278;-47
2022/09/14 00:50:57;;;;;;;4.73;1.13;;;13.70;99.90;;;;;;5040986;28;20222;-50
2022/09/14 00:53:24;;;;;;;5.53;1.23;;;13.60;99.90;;;;;;5038995;28;20203;-50
2022/09/14 00:55:53;;;;;;;4.53;0.80;;;13.60;99.90;;;;;;5043291;28;20219;-49
2022/09/14 00:58:22;;;;;;;1.70;1.20;;;13.70;99.90;;;;;;5041673;28;20274;-51
2022/09/14 01:00:48;;;;;;;3.13;1.60;;;13.70;99.90;;;;;;5029318;28;20203;-47
2022/09/14 01:03:15;;;;;;;3.63;1.40;;;13.60;99.90;;;;;;5040924;28;20245;-49
2022/09/14 01:05:59;;;;;;;1.67;0.90;;;13.60;99.90;;;;;;5047259;28;20220;-49
2022/09/14 01:08:50;;;;;;;2.30;0.83;;;13.60;99.90;;;;;;5054535;28;20667;-51
2022/09/14 01:11:41;;;;;;;4.77;1.40;;;13.50;99.90;;;;;;5061638;28;20218;-51
2022/09/14 01:14:16;;;;;;;4.40;1.30;;;13.40;99.90;;;;;;5061013;28;20227;-50
2022/09/14 01:16:53;;;;;;;4.47;1.07;;;13.40;99.90;;;;;;5035099;28;20277;-48
2022/09/14 01:19:26;;;;;;;5.73;1.20;;;13.40;99.90;;;;;;5038581;28;20199;-50
2022/09/14 01:21:55;;;;;;;4.10;1.10;;;13.30;99.90;;;;;;5038292;28;20229;-47
2022/09/14 01:24:26;;;;;;;7.73;1.47;;;13.30;99.90;;;;;;5044211;28;20236;-52
2022/09/14 01:27:23;;;;;;;2.43;1.13;;;13.30;99.90;;;;;;5063746;28;20683;-50
2022/09/14 01:29:59;;;;;;;5.47;1.27;;;13.30;99.90;;;;;;5060736;28;20186;-50
2022/09/14 01:32:30;;;;;;;1.10;0.80;;;13.30;99.90;;;;;;5025998;28;20214;-48
2022/09/14 01:35:02;;;;;;;3.57;0.97;;;13.30;99.90;;;;;;5041656;28;20223;-49
2022/09/14 01:37:35;;;;;;;4.57;0.97;;;13.30;99.90;;;;;;5059546;28;20221;-49
2022/09/14 01:40:07;;;;;;;7.23;1.00;;;13.30;99.90;;;;;;5058041;28;20853;-49
2022/09/14 01:42:36;;;;;;;3.17;1.10;;;13.20;99.90;;;;;;5038607;28;20973;-47
2022/09/14 01:45:09;;;;;;;3.63;1.30;;;13.10;99.90;;;;;;5042321;28;20223;-49
2022/09/14 01:47:39;;;;;;;5.30;1.30;;;13.10;99.90;;;;;;5026827;28;20191;-47
2022/09/14 01:50:09;;;;;;;2.43;1.30;;;13.10;99.90;;;;;;5040724;28;20202;-48
2022/09/14 01:52:42;;;;;;;3.77;0.83;;;13.10;99.90;;;;;;5038791;28;20274;-48
2022/09/14 01:55:16;;;;;;;6.63;1.20;;;13.10;99.90;;;;;;5041543;28;20230;-51
2022/09/14 01:57:49;;;;;;;4.10;1.20;;;13.10;99.90;;;;;;5041221;28;20194;-51
2022/09/14 02:00:21;;;;;;;8.50;1.10;;;13.10;99.90;;;;;;5041609;28;20194;-49
2022/09/14 02:02:54;;;;;;;3.03;1.00;;;13.00;99.90;;;;;;5031053;28;20222;-49
2022/09/14 02:05:28;;;;;;;5.23;1.30;;;13.10;99.90;;;;;;5042569;28;20600;-49
2022/09/14 02:07:56;;;;;;;2.57;1.13;;;13.00;99.90;;;;;;5054882;28;20221;-49
2022/09/14 02:10:23;;;;;;;7.53;1.30;;;13.00;99.90;;;;;;5053400;28;20218;-48
2022/09/14 02:12:52;;;;;;;5.60;1.27;;;13.00;99.90;;;;;;5049024;28;20657;-48
2022/09/14 02:15:19;;;;;;;6.33;1.43;;;13.00;99.90;;;;;;5043705;28;20226;-50
2022/09/14 02:17:47;;;;;;;3.00;1.13;;;13.00;99.90;;;;;;5032503;28;21919;-49
2022/09/14 02:20:20;;;;;;;7.37;2.03;;;13.00;99.90;;;;;;5044523;28;20707;-51
2022/09/14 02:22:47;;;;;;;6.63;1.43;;;13.00;99.90;;;;;;5041202;28;20202;-51
2022/09/14 02:25:14;;;;;;;4.83;1.30;;;13.00;99.90;;;;;;5044897;28;20578;-51
2022/09/14 02:27:41;;;;;;;4.73;1.30;;;13.00;99.90;;;;;;5044419;28;20175;-51
2022/09/14 02:30:12;;;;;;;3.27;1.20;;;13.00;99.90;;;;;;5046031;28;20218;-50
2022/09/14 02:32:46;;;;;;;6.07;1.63;;;12.90;99.90;;;;;;5039900;28;20795;-49
2022/09/14 02:35:19;;;;;;;4.60;1.40;;;12.90;99.90;;;;;;5030886;28;20226;-46
2022/09/14 02:37:53;;;;;;;5.33;1.10;;;12.90;99.90;;;;;;5043156;28;20225;-47
2022/09/14 02:40:28;;;;;;;4.30;1.00;;;12.90;99.90;;;;;;5043794;28;20191;-50
2022/09/14 02:43:05;;;;;;;7.10;1.30;;;12.90;99.90;;;;;;5044534;28;20233;-51
2022/09/14 02:45:39;;;;;;;5.60;1.40;;;12.80;99.90;;;;;;5040909;28;20207;-47
2022/09/14 02:48:12;;;;;;;2.50;1.07;;;12.90;99.90;;;;;;5045898;28;20201;-48
2022/09/14 02:50:47;;;;;;;6.30;1.70;;;12.90;99.90;;;;;;5030095;28;20209;-49
2022/09/14 02:53:18;;;;;;;2.67;1.30;;;12.90;99.90;;;;;;5039817;28;20202;-51
2022/09/14 02:55:51;;;;;;;2.83;1.40;;;12.80;99.90;;;;;;5046429;28;20222;-48
2022/09/14 02:58:18;;;;;;;5.67;1.17;;;12.80;99.90;;;;;;5043799;28;20762;-52
2022/09/14 03:00:48;;;;;;;3.80;1.40;;;12.80;99.90;;;;;;5039729;28;20206;-50
2022/09/14 03:03:18;;;;;;;3.27;1.30;;;12.80;99.90;;;;;;5043921;28;20537;-51
2022/09/14 03:05:46;;;;;;;4.10;1.63;;;12.80;99.90;;;;;;5030938;28;20227;-48
2022/09/14 03:08:13;;;;;;;7.40;1.47;;;12.80;99.90;;;;;;5043958;28;20226;-50
2022/09/14 03:10:42;;;;;;;4.90;1.37;;;12.70;99.90;;;;;;5040172;28;20216;-48
2022/09/14 03:13:09;;;;;;;5.33;1.73;;;12.60;99.90;;;;;;5044538;28;20199;-51
2022/09/14 03:15:36;;;;;;;4.13;1.60;;;12.70;99.90;;;;;;5041454;28;20958;-51
2022/09/14 03:18:05;;;;;;;6.33;1.33;;;12.60;99.90;;;;;;5044898;28;20215;-52
2022/09/14 03:20:34;;;;;;;3.90;1.47;;;12.60;99.90;;;;;;5026715;28;20220;-49
2022/09/14 03:23:02;;;;;;;4.67;1.20;;;12.60;99.90;;;;;;5044174;28;20191;-47
2022/09/14 03:25:29;;;;;;;5.27;1.57;;;12.60;99.90;;;;;;5035931;28;20212;-52
2022/09/14 03:27:58;;;;;;;6.03;1.47;;;12.60;99.90;;;;;;5058516;28;20207;-50
2022/09/14 03:30:25;;;;;;;5.93;1.50;;;12.60;99.90;;;;;;5053121;28;20191;-52
2022/09/14 03:32:52;;;;;;;7.70;1.47;;;12.60;99.90;;;;;;5044170;28;20195;-52
2022/09/14 03:35:20;;;;;;;7.10;1.60;;;12.60;99.90;;;;;;5042065;28;20731;-49
2022/09/14 03:37:47;;;;;;;7.93;2.40;;;12.60;99.90;;;;;;5030803;28;20211;-50
2022/09/14 03:40:16;;;;;;;6.33;1.60;;;12.60;99.90;;;;;;5041357;28;20200;-48
2022/09/14 03:42:44;;;;;;;7.60;1.63;;;12.60;99.90;;;;;;5040249;28;20327;-48
2022/09/14 03:45:12;;;;;;;8.07;1.80;;;12.60;99.90;;;;;;5040819;28;20219;-49
2022/09/14 03:47:39;;;;;;;3.70;1.80;;;12.60;99.90;;;;;;5042143;28;20198;-51
2022/09/14 03:50:08;;;;;;;4.43;1.90;;;12.60;99.90;;;;;;5045488;28;20622;-48
2022/09/14 03:52:37;;;;;;;4.90;1.40;;;12.60;99.90;;;;;;5044488;28;20203;-48
2022/09/14 03:55:05;;;;;;;8.83;1.60;;;12.60;99.90;;;;;;5043441;28;20211;-51
2022/09/14 03:57:32;;;;;;;10.00;1.90;;;12.60;99.90;;;;;;5052692;28;20206;-48
2022/09/14 03:59:59;;;;;;;4.93;1.67;;;12.60;99.90;;;;;;5064598;28;20237;-49
2022/09/14 04:02:28;;;;;;;3.20;1.63;;;12.60;99.90;;;;;;5060851;28;20191;-49
2022/09/14 04:04:55;;;;;;;8.50;2.30;;;12.60;99.90;;;;;;5063652;28;20214;-48
2022/09/14 04:07:21;;;;;;;5.60;2.10;;;12.50;99.90;;;;;;5052632;28;20216;-47
2022/09/14 04:09:49;;;;;;;4.60;1.83;;;12.50;99.90;;;;;;5035619;28;20604;-48
2022/09/14 04:12:16;;;;;;;6.13;2.27;;;12.50;99.90;;;;;;5043028;28;20892;-49
2022/09/14 04:14:43;;;;;;;7.23;2.10;;;12.50;99.90;;;;;;5048154;28;20226;-49
2022/09/14 04:17:10;;;;;;;5.80;2.60;;;12.60;99.90;;;;;;5040742;28;20676;-48
2022/09/14 04:19:40;;;;;;;9.20;3.57;;;12.60;99.90;;;;;;5044390;28;20214;-51
2022/09/14 04:22:07;;;;;;;7.63;3.40;;;12.60;99.90;;;;;;5041242;28;20571;-50
2022/09/14 04:24:34;;;;;;;4.63;1.90;;;12.60;99.90;;;;;;5028818;28;20608;-50
2022/09/14 04:27:03;;;;;;;8.10;2.33;;;12.60;99.90;;;;;;5040489;28;20644;-48
2022/09/14 04:29:30;;;;;;;4.37;1.70;;;12.60;99.90;;;;;;5036078;28;20203;-49
2022/09/14 04:31:57;;;;;;;4.33;2.30;;;12.60;99.90;;;;;;5047526;28;20191;-52
2022/09/14 04:34:23;;;;;;;4.97;1.90;;;12.60;99.90;;;;;;5058007;28;20289;-49
2022/09/14 04:36:50;;;;;;;4.20;1.87;;;12.70;99.90;;;;;;5064216;28;20218;-48
2022/09/14 04:39:17;;;;;;;5.30;2.20;;;12.70;99.90;;;;;;5043427;28;21857;-49
2022/09/14 04:41:44;;;;;;;7.53;2.30;;;12.60;99.90;;;;;;5043591;28;20199;-48
2022/09/14 04:44:12;;;;;;;5.73;1.90;;;12.70;99.90;;;;;;5045591;28;20218;-51
2022/09/14 04:46:41;;;;;;;8.20;2.57;;;12.70;99.90;;;;;;5052741;28;20600;-48
2022/09/14 04:49:08;;;;;;;7.13;2.17;;;12.70;99.90;;;;;;5041129;28;20233;-50
2022/09/14 04:51:36;;;;;;;7.00;1.60;;;12.70;99.90;;;;;;5046758;28;20207;-51
2022/09/14 04:54:05;;;;;;;7.17;1.83;;;12.80;99.90;;;;;;5032704;28;20378;-53
2022/09/14 04:56:34;;;;;;;7.67;2.23;;;12.80;99.90;;;;;;5039331;28;20302;-50
2022/09/14 04:59:03;;;;;;;7.80;2.13;;;12.80;99.90;;;;;;5051427;28;20663;-48
2022/09/14 05:01:34;;;;;;;6.20;2.40;;;12.90;99.90;;;;;;5040516;28;20218;-51
2022/09/14 05:04:01;;;;;;;5.53;2.20;;;12.90;99.90;;;;;;5041780;28;20264;-48
2022/09/14 05:06:29;;;;;;;8.57;2.37;;;12.90;99.90;;;;;;5037309;28;20191;-50
2022/09/14 05:08:58;;;;;;;5.43;2.13;;;12.90;99.90;;;;;;5052421;28;20294;-49
2022/09/14 05:11:26;;;;;;;8.00;2.63;;;13.00;99.90;;;;;;5033807;28;20248;-49
2022/09/14 05:13:55;;;;;;;5.17;2.10;;;13.00;99.90;;;;;;5043359;28;20234;-49
2022/09/14 05:16:24;;;;;;;6.27;2.90;;;13.00;99.90;;;;;;5036093;28;20199;-51
2022/09/14 05:18:55;;;;;;;10.63;3.20;;;13.00;99.90;;;;;;5056834;28;20220;-52
2022/09/14 05:21:23;;;;;;;9.47;3.63;;;13.00;99.90;;;;;;5059970;28;20206;-49
2022/09/14 05:23:54;;;;;;;6.07;1.77;;;13.00;99.90;;;;;;5044441;28;20222;-48
2022/09/14 05:26:22;;;;;;;3.23;1.97;;;13.10;99.90;;;;;;5030629;28;20954;-49
2022/09/14 05:28:50;;;;;;;11.03;2.57;;;13.10;99.90;;;;;;5046971;28;20210;-48
2022/09/14 05:31:18;;;;;;;6.93;1.70;;;13.20;99.90;;;;;;5048849;28;20198;-48
2022/09/14 05:33:45;;;;;;;4.33;1.77;;;13.20;99.90;;;;;;5061288;28;20218;-50
2022/09/14 05:36:13;;;;;;;3.27;1.70;;;13.20;99.90;;;;;;5055853;28;20832;-50
2022/09/14 05:38:40;;;;;;;6.00;1.57;;;13.30;99.90;;;;;;5047239;28;20680;-51
2022/09/14 05:41:11;;;;;;;3.07;1.63;;;13.30;99.90;;;;;;5030969;28;20210;-53
2022/09/14 05:43:39;;;;;;;6.43;1.63;;;13.40;99.90;;;;;;5046965;28;20225;-50
2022/09/14 05:46:08;;;;;;;9.33;1.83;;;13.40;99.90;;;;;;5043026;28;20538;-51
2022/09/14 05:48:36;;;;;;;12.00;2.83;;;13.40;99.90;;;;;;5054340;28;20192;-49
2022/09/14 05:51:06;;;;;;;7.83;2.40;;;13.40;99.90;;;;;;5044830;28;20555;-51
2022/09/14 05:53:34;;;;;;;5.23;2.40;;;13.40;99.90;;;;;;5057278;28;20282;-47
2022/09/14 05:56:02;;;;;;;7.07;2.33;;;13.40;99.90;;;;;;5042491;28;20214;-53
2022/09/14 05:58:29;;;;;;;5.43;2.07;;;13.50;99.90;;;;;;5045004;28;20207;-48
2022/09/14 06:00:56;;;;;;;4.73;2.13;;;13.50;99.90;;;;;;5047310;28;20194;-47
2022/09/14 06:03:23;;;;;;;7.20;2.47;;;13.50;99.90;;;;;;5042945;28;20248;-46
2022/09/14 06:05:53;;;;;;;6.33;2.90;;;13.60;99.90;;;;;;5046691;28;20187;-47
2022/09/14 06:08:21;;;;;;;3.30;1.73;;;13.60;99.90;;;;;;5043467;28;20191;-48
2022/09/14 06:10:49;;;;;;;5.27;1.60;;;13.60;99.90;;;;;;5033800;28;20660;-48
2022/09/14 06:13:16;;;;;;;5.47;2.10;;;13.70;99.90;;;;;;5041282;28;20907;-48
2022/09/14 06:15:43;;;;;;;7.73;2.17;;;13.70;99.90;;;;;;5046281;28;20223;-51
2022/09/14 06:18:10;;;;;;;3.80;1.50;;;13.70;99.90;;;;;;5055252;28;20229;-50
2022/09/14 06:20:37;;;;;;;3.90;1.70;;;13.80;99.90;;;;;;5065854;28;20195;-47
2022/09/14 06:23:03;;;;;;;9.10;2.40;;;13.80;99.90;;;;;;5064188;28;20194;-50
2022/09/14 06:25:30;;;;;;;5.83;1.90;;;13.90;99.90;;;;;;5064417;28;20206;-50
2022/09/14 06:27:59;;;;;;;3.47;1.87;;;13.90;99.90;;;;;;5034497;28;20234;-52
2022/09/14 06:30:26;;;;;;;6.77;1.60;;;14.00;99.90;;;;;;5036450;28;20202;-50
2022/09/14 06:32:53;;;;;;;5.27;1.70;;;14.00;99.90;;;;;;5047872;28;20210;-51
2022/09/14 06:35:21;;;;;;;6.33;1.53;;;14.10;99.90;;;;;;5041853;28;20199;-49
2022/09/14 06:37:48;;;;;;;7.87;1.83;;;14.10;99.90;;;;;;5046301;28;20219;-50
2022/09/14 06:40:15;;;;;;;3.53;2.40;;;14.20;99.90;;;;;;5039230;28;20187;-48
2022/09/14 06:42:42;;;;;;;4.27;1.30;;;14.20;99.90;;;;;;5035077;28;20211;-47
2022/09/14 06:45:10;;;;;;;5.67;1.33;;;14.20;99.90;;;;;;5042979;28;20211;-52
2022/09/14 06:47:37;;;;;;;6.07;1.90;;;14.20;99.90;;;;;;5048546;28;20198;-50
2022/09/14 06:50:05;;;;;;;4.27;1.57;;;14.20;99.90;;;;;;5053531;28;20199;-47
2022/09/14 06:52:31;;;;;;;3.70;1.80;;;14.30;99.90;;;;;;5056584;28;20211;-54
2022/09/14 06:54:58;;;;;;;5.27;1.60;;;14.30;99.90;;;;;;5041862;28;20234;-49
2022/09/14 06:57:25;;;;;;;6.70;2.10;;;14.40;99.90;;;;;;5033858;28;20219;-47
2022/09/14 06:59:51;;;;;;;5.03;1.53;;;14.40;99.90;;;;;;5045847;28;20191;-53
2022/09/14 07:02:20;;;;;;;5.63;1.80;;;14.40;99.90;;;;;;5034280;28;20206;-51
2022/09/14 07:04:46;;;;;;;5.97;1.83;;;14.50;99.90;;;;;;5053293;28;20290;-53
2022/09/14 07:07:15;;;;;;;4.20;1.30;;;14.50;99.90;;;;;;5052324;28;20201;-52
2022/09/14 07:09:41;;;;;;;7.07;2.10;;;14.50;99.90;;;;;;5044821;28;20196;-53
2022/09/14 07:12:08;;;;;;;6.20;1.90;;;14.60;99.90;;;;;;5033410;28;20199;-49
2022/09/14 07:14:35;;;;;;;2.50;1.70;;;14.70;99.90;;;;;;5039134;28;20215;-48
2022/09/14 07:17:02;;;;;;;2.90;1.67;;;14.70;99.90;;;;;;5046063;28;20230;-52
2022/09/14 07:19:30;;;;;;;5.07;1.40;;;14.90;99.90;;;;;;5057724;28;20190;-51
2022/09/14 07:21:57;;;;;;;3.90;1.47;;;15.00;99.90;;;;;;5046593;28;20711;-54
2022/09/14 07:24:24;;;;;;;1.40;1.00;;;15.20;99.90;;;;;;5039721;28;20949;-51
2022/09/14 07:26:51;;;;;;;5.80;1.50;;;15.20;99.90;;;;;;5039555;28;20229;-51
2022/09/14 07:29:20;;;;;;;6.97;1.40;;;15.30;99.90;;;;;;5027522;28;20195;-50
2022/09/14 07:31:50;;;;;;;4.40;1.50;;;15.40;99.90;;;;;;5045326;28;20615;-51
2022/09/14 07:34:17;;;;;;;4.00;1.27;;;15.50;99.90;;;;;;5045603;28;20227;-51
2022/09/14 07:36:45;;;;;;;7.70;1.40;;;15.60;99.90;;;;;;5044512;28;20195;-49
2022/09/14 07:39:14;;;;;;;5.97;1.20;;;15.60;99.90;;;;;;5041646;28;20223;-50
2022/09/14 07:41:42;;;;;;;4.63;1.53;;;15.70;99.90;;;;;;5042418;28;20221;-51
2022/09/14 07:44:12;;;;;;;4.30;1.40;;;15.70;99.90;;;;;;5042585;28;20227;-49
2022/09/14 07:46:42;;;;;;;8.83;1.67;;;15.80;99.90;;;;;;5040480;28;20207;-49
2022/09/14 07:49:09;;;;;;;5.70;1.30;;;15.90;99.90;;;;;;5036258;28;20668;-51
2022/09/14 07:51:38;;;;;;;1.80;1.27;;;16.00;99.90;;;;;;5042109;28;20290;-48
2022/09/14 07:54:07;;;;;;;7.90;1.33;;;16.10;99.90;;;;;;5042008;28;20249;-51
2022/09/14 07:56:34;;;;;;;5.73;1.30;;;16.20;99.90;;;;;;5039929;28;20213;-50
2022/09/14 07:59:03;;;;;;;5.03;1.63;;;16.20;99.90;;;;;;5044817;28;20733;-49
2022/09/14 08:01:29;;;;;;;6.53;1.40;;;16.30;99.90;;;;;;5034026;28;20292;-51
2022/09/14 08:04:00;;;;;;;5.87;1.37;;;16.40;99.90;;;;;;5039415;28;20234;-52
2022/09/14 08:06:27;;;;;;;3.60;1.30;;;16.40;99.90;;;;;;5051127;28;20215;-48
2022/09/14 08:08:55;;;;;;;5.53;1.60;;;16.40;99.90;;;;;;5043194;28;20195;-51
2022/09/14 08:11:25;;;;;;;4.07;1.30;;;16.40;99.90;;;;;;5039518;28;20195;-52
2022/09/14 08:13:54;;;;;;;7.90;0.97;;;16.50;99.90;;;;;;5049147;28;20235;-52
2022/09/14 08:16:21;;;;;;;7.53;1.50;;;16.50;99.90;;;;;;5025260;28;20222;-49
2022/09/14 08:18:52;;;;;;;4.17;1.13;;;16.50;99.90;;;;;;5038676;28;20766;-47
2022/09/14 08:21:19;;;;;;;4.37;1.30;;;16.60;99.90;;;;;;5044636;28;20214;-48
2022/09/14 08:23:46;;;;;;;5.57;1.17;;;16.60;99.90;;;;;;5045770;28;20265;-49
2022/09/14 08:26:14;;;;;;;5.70;1.10;;;;;;;;;;5040062;28;20660;-52
2022/09/14 08:28:42;;;;;;;6.67;1.50;;;16.80;99.90;;;;;;5044319;28;20207;-49
2022/09/14 08:31:13;;;;;;;5.00;1.60;;;16.80;99.90;;;;;;5032638;28;20562;-50
2022/09/14 08:33:42;;;;;;;4.27;1.10;;;16.80;99.90;;;;;;5039663;28;20207;-47
2022/09/14 08:36:11;;;;;;;4.33;1.07;;;16.90;99.90;;;;;;5040978;28;20203;-48
2022/09/14 08:38:38;;;;;;;4.17;1.30;;;16.90;99.90;;;;;;5062683;28;20276;-50
2022/09/14 08:41:16;;;;;;;8.53;1.20;;;17.00;99.90;;;;;;5047703;28;20215;-49
2022/09/14 08:43:44;;;;;;;5.43;1.30;;;17.00;99.90;;;;;;5041375;28;20601;-49
2022/09/14 08:46:29;;;;;;;4.77;1.20;;;17.00;99.90;;;;;;5035596;28;20204;-49
2022/09/14 08:48:56;;;;;;;5.93;1.57;;;17.10;99.90;;;;;;5030420;28;20215;-51
2022/09/14 08:51:23;;;;;;;4.30;1.83;;;17.10;99.90;;;;;;5041371;28;20391;-53
2022/09/14 08:53:52;;;;;;;5.53;1.30;;;17.20;99.90;;;;;;5040082;28;20223;-51
2022/09/14 08:56:24;;;;;;;4.33;1.50;;;17.20;99.90;;;;;;5040182;28;20199;-48
2022/09/14 08:59:06;;;;;;;4.07;1.67;;;17.30;99.90;;;;;;5040412;28;20242;-52
2022/09/14 09:01:42;;;;;;;4.37;1.20;;;17.30;99.90;;;;;;5037870;28;20203;-53
2022/09/14 09:04:24;;;;;;;5.50;1.50;;;17.30;99.90;;;;;;5023329;28;20830;-51
2022/09/14 09:06:58;;;;;;;6.03;1.90;;;17.30;99.90;;;;;;5035022;28;20210;-47
2022/09/14 09:09:39;;;;;;;5.60;1.33;;;17.30;99.90;;;;;;5055087;28;20927;-49
2022/09/14 09:12:07;;;;;;;4.33;1.43;;;17.40;99.90;;;;;;5037714;28;20603;-53
2022/09/14 09:14:38;;;;;;;3.20;1.03;;;17.50;99.90;;;;;;5040911;28;20261;-50
2022/09/14 09:17:12;;;;;;;12.33;1.63;;;17.50;99.90;;;;;;5040993;28;20317;-50
2022/09/14 09:19:52;;;;;;;5.13;1.00;;;17.50;99.90;;;;;;5029743;28;20316;-47
2022/09/14 09:22:21;;;;;;;4.53;1.40;;;17.60;99.90;;;;;;5039476;28;20215;-50
2022/09/14 09:24:53;;;;;;;7.43;1.60;;;17.70;99.90;;;;;;5047719;28;20223;-51
2022/09/14 09:27:22;;;;;;;4.93;1.30;;;17.70;99.90;;;;;;5040726;28;20226;-51
2022/09/14 09:29:51;;;;;;;3.77;1.33;;;17.80;99.90;;;;;;5042301;28;20199;-48
2022/09/14 09:32:20;;;;;;;6.40;1.90;;;17.80;99.90;;;;;;5045936;28;20218;-48
2022/09/14 09:35:20;;;;;;;9.07;1.40;;;17.80;99.90;;;;;;5051878;28;20886;-48
2022/09/14 09:38:14;;;;;;;6.17;1.43;;;17.80;99.90;;;;;;5037602;28;20463;-51
2022/09/14 09:40:45;;;;;;;8.60;1.50;;;17.70;99.90;;;;;;5052420;28;20210;-48
2022/09/14 09:43:15;;;;;;;4.20;1.23;;;17.70;99.90;;;;;;5056210;28;20313;-46
2022/09/14 09:45:53;;;;;;;4.83;1.23;;;17.60;99.90;;;;;;5050632;28;20214;-48
2022/09/14 09:48:24;;;;;;;8.10;1.30;;;17.60;99.90;;;;;;5051488;28;20195;-51
2022/09/14 09:51:00;;;;;;;9.07;1.40;;;17.60;99.90;;;;;;5025865;28;20207;-46
2022/09/14 09:53:28;;;;;;;5.23;1.70;;;17.60;99.90;;;;;;5038261;28;21027;-47
2022/09/14 09:55:54;;;;;;;5.60;1.20;;;17.70;99.90;;;;;;5040370;28;20614;-53
2022/09/14 09:58:34;;;;;;;6.83;1.50;;;17.70;99.90;;;;;;5041267;28;20226;-51
2022/09/14 10:01:05;;;;;;;5.57;1.60;;;17.80;99.90;;;;;;5039573;28;20226;-47
2022/09/14 10:03:34;;;;;;;4.20;1.60;;;17.80;99.90;;;;;;5043208;28;20211;-45
2022/09/14 10:06:04;;;;;;;6.50;1.77;;;17.80;99.90;;;;;;5026644;28;20222;-51
2022/09/14 10:08:33;;;;;;;4.73;1.50;;;17.70;99.90;;;;;;5038275;28;20196;-49
2022/09/14 10:11:02;;;;;;;6.00;1.63;;;17.70;99.90;;;;;;5043176;28;20665;-52
2022/09/14 10:13:32;;;;;;;6.57;1.63;;;17.70;99.90;;;;;;5039764;28;20234;-49
2022/09/14 10:16:16;;;;;;;8.83;2.10;;;17.70;99.90;;;;;;5039830;28;20211;-50
2022/09/14 10:18:45;;;;;;;4.83;1.50;;;17.60;99.90;;;;;;5029533;28;20237;-52
2022/09/14 10:21:14;;;;;;;6.77;1.67;;;17.60;99.90;;;;;;5023956;28;20268;-51
2022/09/14 10:23:42;;;;;;;3.87;1.00;;;17.50;99.90;;;;;;5043476;28;20198;-53
2022/09/14 10:26:24;;;;;;;5.03;1.50;;;17.50;99.90;;;;;;5049192;28;20210;-50
2022/09/14 10:28:51;;;;;;;3.13;1.87;;;17.40;99.90;;;;;;5049421;28;20278;-51
2022/09/14 10:31:25;;;;;;;5.37;1.47;;;17.40;99.90;;;;;;5041614;28;20322;-51
2022/09/14 10:33:56;;;;;;;5.17;1.33;;;17.30;99.90;;;;;;5032678;28;20222;-50
2022/09/14 10:36:26;;;;;;;4.03;1.17;;;17.20;99.90;;;;;;5043974;28;20206;-48
2022/09/14 10:38:57;;;;;;;2.97;1.20;;;17.30;99.90;;;;;;5037029;28;20282;-49
2022/09/14 10:41:30;;;;;;;3.80;1.13;;;17.20;99.90;;;;;;5055411;28;20206;-51
2022/09/14 10:44:25;;;;;;;4.60;1.43;;;17.20;99.90;;;;;;5038811;28;20231;-52
2022/09/14 10:47:10;;;;;;;3.70;0.97;;;17.20;99.90;;;;;;5036845;28;20204;-49
2022/09/14 10:49:51;;;;;;;4.67;1.40;;;17.20;99.90;;;;;;5041525;28;20206;-50
2022/09/14 10:52:26;;;;;;;3.73;1.03;;;17.30;99.90;;;;;;5030389;28;20199;-48
2022/09/14 10:55:04;;;;;;;4.77;1.00;;;17.40;99.90;;;;;;5036033;28;20570;-53
2022/09/14 10:57:45;;;;;;;3.83;1.30;;;17.50;99.90;;;;;;5031476;28;20656;-49
2022/09/14 11:00:15;;;;;;;8.47;2.17;;;17.50;99.90;;;;;;5041725;28;20225;-47
2022/09/14 11:03:19;;;;;;;3.20;1.20;;;17.60;99.90;;;;;;5045046;28;20286;-53
2022/09/14 11:05:55;;;;;;;4.77;1.23;;;17.80;99.90;;;;;;5057321;28;20214;-50
2022/09/14 11:08:48;;;;;;;2.40;1.10;;;18.10;99.90;;;;;;5022176;28;20742;-50
2022/09/14 11:11:32;;;;;;;5.63;1.10;;;18.30;99.90;;;;;;5039488;28;20218;-48
2022/09/14 11:14:25;;;;;;;6.53;1.27;;;18.50;99.90;;;;;;5051795;28;20305;-49
2022/09/14 11:17:25;;;;;;;2.00;0.80;;;18.60;99.90;;;;;;5046115;28;20207;-52
2022/09/14 11:20:02;;;;;;;5.87;1.40;;;18.50;99.90;;;;;;5048865;28;20231;-51
2022/09/14 11:22:40;;;;;;;7.17;1.40;;;18.60;99.90;;;;;;5032043;28;20285;-53
2022/09/14 11:25:13;;;;;;;5.10;1.00;;;18.70;99.90;;;;;;5031461;28;20294;-53
2022/09/14 11:27:44;;;;;;;4.80;1.40;;;18.70;99.90;;;;;;5052130;28;20210;-52
2022/09/14 11:30:15;;;;;;;6.27;1.50;;;18.80;99.90;;;;;;5055564;28;20191;-53
2022/09/14 11:32:47;;;;;;;5.07;1.67;;;18.90;99.90;;;;;;5031665;28;20192;-51
2022/09/14 11:35:18;;;;;;;3.47;1.23;;;19.00;99.90;;;;;;5057974;28;20219;-53
2022/09/14 11:37:49;;;;;;;7.13;1.17;;;19.10;99.90;;;;;;5048214;28;20196;-51
2022/09/14 11:40:22;;;;;;;4.33;1.23;;;19.10;99.90;;;;;;5034112;28;20223;-50
2022/09/14 11:42:58;;;;;;;7.17;0.87;;;19.20;99.90;;;;;;5040033;28;20248;-51
2022/09/14 11:45:30;;;;;;;2.97;0.90;;;19.20;99.90;;;;;;5029794;28;20218;-52
2022/09/14 11:48:08;;;;;;;6.47;1.20;;;19.30;99.90;;;;;;5035610;28;20390;-51
2022/09/14 11:50:38;;;;;;;5.70;1.00;;;19.30;99.90;;;;;;5053762;28;20656;-54
2022/09/14 11:53:11;;;;;;;5.13;1.00;;;19.20;99.90;;;;;;5037009;28;20214;-53
2022/09/14 11:55:42;;;;;;;9.23;1.40;;;19.10;99.90;;;;;;5040430;28;20703;-53
2022/09/14 11:58:17;;;;;;;3.80;1.00;;;19.00;99.90;;;;;;5038169;28;20550;-49
2022/09/14 12:01:00;;;;;;;3.57;1.10;;;18.80;99.90;;;;;;5050177;28;20229;-49
2022/09/14 12:03:53;;;;;;;6.50;1.10;;;18.70;99.90;;;;;;5041572;28;20317;-52
2022/09/14 12:06:57;;;;;;;4.17;1.10;;;18.40;99.90;;;;;;5058597;28;20186;-47
2022/09/14 12:10:15;;;;;;;4.60;1.20;;;18.20;99.90;;;;;;5036196;28;20194;-51
2022/09/14 12:12:43;;;;;;;3.80;0.80;;;18.10;99.90;;;;;;5033499;28;20748;-50
2022/09/14 12:15:33;;;;;;;8.37;1.50;;;18.10;99.90;;;;;;5043718;28;21002;-50
2022/09/14 12:18:22;;;;;;;4.10;1.30;;;18.10;99.90;;;;;;5047566;28;20273;-49
2022/09/14 12:21:06;;;;;;;4.17;1.10;;;18.20;99.90;;;;;;5041927;28;20222;-50
2022/09/14 12:23:45;;;;;;;4.60;1.43;;;18.30;99.90;;;;;;5035475;28;20592;-50
2022/09/14 12:26:38;;;;;;;3.13;1.00;;;18.30;99.90;;;;;;5034369;28;20215;-48
2022/09/14 12:29:27;;;;;;;6.93;1.40;;;18.20;99.90;;;;;;5032859;28;20209;-49
2022/09/14 12:32:22;;;;;;;10.70;1.53;;;18.10;99.90;;;;;;5054425;28;20250;-50
2022/09/14 12:35:28;;;;;;;7.03;1.60;;;18.00;99.90;;;;;;5028663;28;20297;-52
2022/09/14 12:37:55;;;;;;;5.33;1.03;;;17.90;99.90;;;;;;5037724;28;20206;-49
2022/09/14 12:40:37;;;;;;;4.60;1.20;;;17.80;99.90;;;;;;5041235;28;20210;-50
2022/09/14 12:43:49;;;;;;;3.83;1.13;;;17.80;99.90;;;;;;5023483;28;20199;-50
2022/09/14 12:46:39;;;;;;;6.30;1.63;;;17.70;99.90;;;;;;5034434;28;20215;-50
2022/09/14 12:49:29;;;;;;;5.57;1.53;;;17.70;99.90;;;;;;5050930;28;20236;-52
2022/09/14 12:52:00;;;;;;;4.57;1.00;;;17.80;99.90;;;;;;5037860;28;20703;-52
2022/09/14 12:54:39;;;;;;;3.67;1.40;;;17.80;99.90;;;;;;5042498;28;20219;-51
2022/09/14 12:57:22;;;;;;;4.10;1.20;;;17.80;99.90;;;;;;5027150;28;20195;-48
2022/09/14 12:59:54;;;;;;;3.93;1.40;;;17.80;99.90;;;;;;5038904;28;20293;-51
2022/09/14 13:03:12;;;;;;;4.00;1.17;;;17.80;99.90;;;;;;5060960;28;20253;-50
2022/09/14 13:05:43;;;;;;;3.53;1.37;;;18.00;99.90;;;;;;5029742;28;20373;-50
2022/09/14 13:08:12;;;;;;;5.97;1.10;;;18.10;99.90;;;;;;5061364;28;20952;-52
2022/09/14 13:10:45;;;;;;;3.80;1.10;;;18.20;99.90;;;;;;5063401;28;20199;-50
2022/09/14 13:13:17;;;;;;;4.00;1.30;;;18.40;99.90;;;;;;5034514;28;20218;-50